createdAt,value
2023-01-22T00:01:19.870Z,99352.06
2023-01-22T00:03:49.224Z,99351.94
2023-01-22T00:06:16.510Z,99359.69
2023-01-22T00:08:43.711Z,99358.00
2023-01-22T00:11:11.602Z,99353.53
2023-01-22T00:13:38.762Z,99355.28
2023-01-22T00:16:07.202Z,99359.53
2023-01-22T00:18:34.739Z,99351.81
2023-01-22T00:21:01.750Z,99363.09
2023-01-22T00:23:28.911Z,99364.69
2023-01-22T00:26:05.528Z,99367.34
2023-01-22T00:28:32.689Z,99371.91
2023-01-22T00:31:01.677Z,99364.00
2023-01-22T00:33:29.298Z,99363.16
2023-01-22T00:35:56.643Z,99362.34
2023-01-22T00:38:24.050Z,99365.72
2023-01-22T00:40:51.047Z,99370.91
2023-01-22T00:43:18.141Z,99372.56
2023-01-22T00:45:45.593Z,99373.47
2023-01-22T00:48:12.624Z,99380.19
2023-01-22T00:50:39.645Z,99368.91
2023-01-22T00:53:07.032Z,99365.66
2023-01-22T00:55:34.053Z,99373.53
2023-01-22T00:58:01.291Z,99377.16
2023-01-22T01:00:28.944Z,99373.63
2023-01-22T01:03:14.392Z,99382.28
2023-01-22T01:05:42.951Z,99392.63
2023-01-22T01:08:10.273Z,99383.72
2023-01-22T01:10:37.380Z,99392.50
2023-01-22T01:13:04.751Z,99378.84
2023-01-22T01:15:31.843Z,99389.28
2023-01-22T01:17:58.943Z,99382.41
2023-01-22T01:20:26.351Z,99393.56
2023-01-22T01:22:53.487Z,99390.09
2023-01-22T01:25:20.645Z,99391.75
2023-01-22T01:27:48.049Z,99390.06
2023-01-22T01:30:15.764Z,99388.28
2023-01-22T01:32:43.213Z,99395.31
2023-01-22T01:35:10.643Z,99395.47
2023-01-22T01:37:38.723Z,99393.69
2023-01-22T01:40:06.558Z,99403.06
2023-01-22T01:42:39.061Z,99399.44
2023-01-22T01:45:24.853Z,99392.38
2023-01-22T01:48:03.559Z,99393.22
2023-01-22T01:50:30.801Z,99393.28
2023-01-22T01:53:00.684Z,99394.34
2023-01-22T01:55:31.451Z,99389.94
2023-01-22T01:58:06.019Z,99384.75
2023-01-22T02:00:35.098Z,99388.12
2023-01-22T02:03:03.172Z,99389.28
2023-01-22T02:05:36.340Z,99382.22
2023-01-22T02:08:05.457Z,99385.81
2023-01-22T02:10:32.797Z,99390.09
2023-01-22T02:13:05.271Z,99381.44
2023-01-22T02:15:32.866Z,99385.88
2023-01-22T02:18:00.274Z,99384.37
2023-01-22T02:20:27.589Z,99378.16
2023-01-22T02:22:54.718Z,99372.16
2023-01-22T02:25:23.225Z,99366.16
2023-01-22T02:27:50.420Z,99374.03
2023-01-22T02:30:20.258Z,99371.62
2023-01-22T02:32:47.865Z,99382.19
2023-01-22T02:35:15.151Z,99362.47
2023-01-22T02:37:43.107Z,99362.53
2023-01-22T02:40:11.085Z,99367.87
2023-01-22T02:42:38.354Z,99363.59
2023-01-22T02:45:06.535Z,99365.44
2023-01-22T02:47:36.433Z,99367.31
2023-01-22T02:50:04.589Z,99363.94
2023-01-22T02:52:31.675Z,99356.41
2023-01-22T02:54:59.149Z,99368.50
2023-01-22T02:57:26.302Z,99357.38
2023-01-22T02:59:53.415Z,99361.56
2023-01-22T03:02:21.811Z,99366.00
2023-01-22T03:04:50.312Z,99358.91
2023-01-22T03:07:18.545Z,99356.25
2023-01-22T03:09:47.499Z,99350.34
2023-01-22T03:12:14.679Z,99352.19
2023-01-22T03:15:00.538Z,99351.38
2023-01-22T03:17:46.645Z,99352.19
2023-01-22T03:20:32.548Z,99346.97
2023-01-22T03:23:00.391Z,99342.69
2023-01-22T03:25:27.431Z,99342.50
2023-01-22T03:28:16.487Z,99359.94
2023-01-22T03:30:45.364Z,99345.16
2023-01-22T03:33:12.748Z,99344.34
2023-01-22T03:35:39.890Z,99352.09
2023-01-22T03:38:07.735Z,99352.84
2023-01-22T03:40:34.826Z,99354.69
2023-01-22T03:43:01.977Z,99352.09
2023-01-22T03:45:29.423Z,99348.69
2023-01-22T03:47:56.557Z,99352.00
2023-01-22T03:50:24.086Z,99342.34
2023-01-22T03:52:52.229Z,99344.19
2023-01-22T03:55:19.397Z,99346.94
2023-01-22T03:57:46.641Z,99345.06
2023-01-22T04:00:14.732Z,99349.44
2023-01-22T04:02:42.671Z,99350.16
2023-01-22T04:05:10.810Z,99350.16
2023-01-22T04:07:38.126Z,99357.97
2023-01-22T04:10:06.240Z,99348.31
2023-01-22T04:12:33.338Z,99352.63
2023-01-22T04:15:00.504Z,99350.12
2023-01-22T04:17:27.968Z,99345.72
2023-01-22T04:19:56.406Z,99348.50
2023-01-22T04:22:23.609Z,99348.50
2023-01-22T04:24:51.421Z,99346.66
2023-01-22T04:27:18.535Z,99343.47
2023-01-22T04:29:47.828Z,99347.69
2023-01-22T04:32:15.236Z,99351.16
2023-01-22T04:34:44.260Z,99349.31
2023-01-22T04:37:13.595Z,99358.81
2023-01-22T04:39:41.044Z,99358.00
2023-01-22T04:42:11.232Z,99362.28
2023-01-22T04:44:38.456Z,99351.06
2023-01-22T04:47:07.342Z,99357.12
2023-01-22T04:49:35.101Z,99354.47
2023-01-22T04:52:04.028Z,99346.56
2023-01-22T04:54:32.329Z,99345.66
2023-01-22T04:56:59.536Z,99349.03
2023-01-22T04:59:26.750Z,99348.94
2023-01-22T05:01:54.160Z,99349.81
2023-01-22T05:04:21.878Z,99345.37
2023-01-22T05:06:50.005Z,99352.31
2023-01-22T05:09:17.586Z,99355.88
2023-01-22T05:11:46.987Z,99366.94
2023-01-22T05:14:14.321Z,99368.78
2023-01-22T05:16:41.788Z,99376.44
2023-01-22T05:19:08.904Z,99369.53
2023-01-22T05:21:36.249Z,99388.47
2023-01-22T05:24:05.577Z,99379.91
2023-01-22T05:26:33.812Z,99386.56
2023-01-22T05:29:02.360Z,99390.72
2023-01-22T05:31:30.038Z,99391.56
2023-01-22T05:33:58.565Z,99395.16
2023-01-22T05:36:25.799Z,99407.44
2023-01-22T05:38:54.302Z,99416.69
2023-01-22T05:41:21.775Z,99415.78
2023-01-22T05:43:49.903Z,99423.66
2023-01-22T05:46:17.789Z,99423.41
2023-01-22T05:48:45.281Z,99417.28
2023-01-22T05:51:12.540Z,99430.31
2023-01-22T05:53:40.242Z,99431.16
2023-01-22T05:56:08.286Z,99439.94
2023-01-22T05:58:35.895Z,99437.28
2023-01-22T06:01:04.138Z,99443.13
2023-01-22T06:03:32.144Z,99439.72
2023-01-22T06:06:08.618Z,99434.28
2023-01-22T06:08:36.435Z,99430.84
2023-01-22T06:11:07.482Z,99440.31
2023-01-22T06:13:35.168Z,99440.44
2023-01-22T06:16:04.828Z,99437.97
2023-01-22T06:18:33.360Z,99451.66
2023-01-22T06:21:03.464Z,99457.75
2023-01-22T06:23:31.388Z,99468.13
2023-01-22T06:26:01.357Z,99465.59
2023-01-22T06:28:30.578Z,99469.84
2023-01-22T06:31:05.436Z,99476.03
2023-01-22T06:33:34.644Z,99489.00
2023-01-22T06:36:04.328Z,99500.19
2023-01-22T06:38:31.876Z,99496.72
2023-01-22T06:41:00.387Z,99499.94
2023-01-22T06:43:28.569Z,99499.81
2023-01-22T06:45:56.169Z,99494.59
2023-01-22T06:48:23.753Z,99488.13
2023-01-22T06:50:51.257Z,99494.34
2023-01-22T06:53:18.438Z,99491.69
2023-01-22T06:55:45.544Z,99498.44
2023-01-22T06:58:12.985Z,99497.37
2023-01-22T07:00:40.105Z,99499.03
2023-01-22T07:03:08.365Z,99510.47
2023-01-22T07:05:35.855Z,99511.47
2023-01-22T07:08:03.525Z,99514.94
2023-01-22T07:10:30.759Z,99521.78
2023-01-22T07:13:04.181Z,99519.06
2023-01-22T07:15:31.327Z,99516.19
2023-01-22T07:17:58.787Z,99526.44
2023-01-22T07:20:25.964Z,99528.25
2023-01-22T07:22:53.111Z,99531.66
2023-01-22T07:25:20.590Z,99537.84
2023-01-22T07:27:47.709Z,99551.78
2023-01-22T07:30:14.967Z,99542.03
2023-01-22T07:32:42.544Z,99559.16
2023-01-22T07:35:09.746Z,99552.22
2023-01-22T07:37:36.923Z,99551.91
2023-01-22T07:40:05.899Z,99552.72
2023-01-22T07:42:33.055Z,99549.03
2023-01-22T07:45:00.165Z,99561.13
2023-01-22T07:47:27.620Z,99562.97
2023-01-22T07:49:54.755Z,99559.47
2023-01-22T07:52:21.915Z,99555.97
2023-01-22T07:54:49.349Z,99560.22
2023-01-22T07:57:16.785Z,99562.81
2023-01-22T07:59:43.912Z,99560.06
2023-01-22T08:02:15.203Z,99558.19
2023-01-22T08:04:42.923Z,99552.91
2023-01-22T08:07:19.445Z,99553.97
2023-01-22T08:09:46.923Z,99559.91
2023-01-22T08:12:14.091Z,99571.75
2023-01-22T08:14:41.128Z,99577.78
2023-01-22T08:17:08.514Z,99596.97
2023-01-22T08:19:35.701Z,99599.47
2023-01-22T08:22:04.343Z,99600.28
2023-01-22T08:24:32.267Z,99599.81
2023-01-22T08:26:59.378Z,99598.47
2023-01-22T08:29:26.560Z,99602.31
2023-01-22T08:31:54.268Z,99610.00
2023-01-22T08:34:22.132Z,99611.69
2023-01-22T08:36:49.306Z,99619.69
2023-01-22T08:39:16.690Z,99631.09
2023-01-22T08:41:43.879Z,99622.72
2023-01-22T08:44:14.256Z,99620.97
2023-01-22T08:46:41.739Z,99624.62
2023-01-22T08:49:09.149Z,99629.03
2023-01-22T08:51:36.354Z,99641.09
2023-01-22T08:54:03.878Z,99635.94
2023-01-22T08:56:31.038Z,99635.28
2023-01-22T08:59:00.685Z,99645.06
2023-01-22T09:01:28.149Z,99650.41
2023-01-22T09:03:55.267Z,99647.66
2023-01-22T09:06:23.247Z,99651.75
2023-01-22T09:08:50.728Z,99649.47
2023-01-22T09:11:17.888Z,99652.47
2023-01-22T09:13:45.578Z,99654.66
2023-01-22T09:16:13.138Z,99658.09
2023-01-22T09:18:40.293Z,99667.03
2023-01-22T09:21:08.415Z,99664.75
2023-01-22T09:23:35.855Z,99669.38
2023-01-22T09:26:03.089Z,99665.28
2023-01-22T09:28:30.305Z,99683.44
2023-01-22T09:30:57.813Z,99669.66
2023-01-22T09:33:25.005Z,99676.66
2023-01-22T09:35:52.297Z,99670.56
2023-01-22T09:38:19.887Z,99676.00
2023-01-22T09:40:59.326Z,99678.41
2023-01-22T09:43:37.672Z,99676.62
2023-01-22T09:46:15.926Z,99676.97
2023-01-22T09:48:47.621Z,99687.22
2023-01-22T09:51:15.961Z,99685.62
2023-01-22T09:53:49.970Z,99678.69
2023-01-22T09:56:21.442Z,99682.78
2023-01-22T09:58:51.361Z,99692.34
2023-01-22T10:01:19.847Z,99683.88
2023-01-22T10:03:56.538Z,99679.34
2023-01-22T10:06:25.164Z,99685.22
2023-01-22T10:09:10.681Z,99688.53
2023-01-22T10:11:38.580Z,99683.50
2023-01-22T10:14:15.644Z,99680.81
2023-01-22T10:16:42.874Z,99687.81
2023-01-22T10:19:16.498Z,99686.91
2023-01-22T10:21:47.080Z,99690.91
2023-01-22T10:24:14.611Z,99684.81
2023-01-22T10:26:47.483Z,99694.00
2023-01-22T10:29:25.867Z,99692.16
2023-01-22T10:31:59.353Z,99695.31
2023-01-22T10:34:36.262Z,99693.69
2023-01-22T10:37:16.133Z,99695.47
2023-01-22T10:39:48.074Z,99701.84
2023-01-22T10:42:23.408Z,99700.03
2023-01-22T10:44:55.409Z,99696.59
2023-01-22T10:47:27.454Z,99698.47
2023-01-22T10:50:04.972Z,99702.69
2023-01-22T10:52:41.330Z,99702.78
2023-01-22T10:55:27.535Z,99700.53
2023-01-22T10:57:59.452Z,99712.84
2023-01-22T11:00:50.547Z,99705.13
2023-01-22T11:03:24.008Z,99715.53
2023-01-22T11:05:57.916Z,99715.69
2023-01-22T11:08:30.917Z,99708.41
2023-01-22T11:11:03.527Z,99706.16
2023-01-22T11:13:52.869Z,99700.38
2023-01-22T11:16:23.241Z,99709.94
2023-01-22T11:18:55.936Z,99705.22
2023-01-22T11:21:29.574Z,99710.41
2023-01-22T11:24:11.852Z,99706.16
2023-01-22T11:27:09.183Z,99717.56
2023-01-22T11:29:54.022Z,99718.53
2023-01-22T11:32:30.366Z,99731.97
2023-01-22T11:35:19.053Z,99736.88
2023-01-22T11:38:10.797Z,99735.03
2023-01-22T11:40:49.854Z,99738.03
2023-01-22T11:43:35.640Z,99748.50
2023-01-22T11:46:24.833Z,99735.78
2023-01-22T11:49:22.338Z,99737.62
2023-01-22T11:52:10.540Z,99731.88
2023-01-22T11:54:50.179Z,99742.28
2023-01-22T11:57:26.505Z,99744.81
2023-01-22T12:00:28.920Z,99737.66
2023-01-22T12:02:59.126Z,99748.91
2023-01-22T12:05:59.511Z,99750.81
2023-01-22T12:08:38.683Z,99753.28
2023-01-22T12:11:27.643Z,99759.53
2023-01-22T12:14:27.106Z,99767.44
2023-01-22T12:17:00.102Z,99767.72
2023-01-22T12:19:53.035Z,99780.03
2023-01-22T12:22:44.283Z,99767.16
2023-01-22T12:25:39.586Z,99775.66
2023-01-22T12:28:09.501Z,99771.28
2023-01-22T12:30:40.305Z,99774.88
2023-01-22T12:33:12.802Z,99775.88
2023-01-22T12:35:40.684Z,99773.91
2023-01-22T12:38:13.525Z,99775.38
2023-01-22T12:41:05.332Z,99775.38
2023-01-22T12:43:42.629Z,99773.81
2023-01-22T12:46:35.464Z,99778.19
2023-01-22T12:49:07.096Z,99786.03
2023-01-22T12:51:37.695Z,99789.31
2023-01-22T12:54:27.604Z,99794.38
2023-01-22T12:57:11.573Z,99795.87
2023-01-22T12:59:39.071Z,99796.78
2023-01-22T13:02:35.881Z,99802.75
2023-01-22T13:05:31.854Z,99798.62
2023-01-22T13:08:03.680Z,99800.41
2023-01-22T13:10:36.528Z,99798.50
2023-01-22T13:13:34.607Z,99797.28
2023-01-22T13:16:31.468Z,99800.00
2023-01-22T13:19:00.889Z,99808.59
2023-01-22T13:21:33.658Z,99811.31
2023-01-22T13:24:11.718Z,99821.06
2023-01-22T13:26:39.202Z,99821.00
2023-01-22T13:29:27.247Z,99827.16
2023-01-22T13:31:59.829Z,99831.97
2023-01-22T13:34:29.117Z,99843.66
2023-01-22T13:36:57.385Z,99841.97
2023-01-22T13:39:32.351Z,99848.31
2023-01-22T13:42:02.906Z,99849.97
2023-01-22T13:44:50.640Z,99854.66
2023-01-22T13:47:39.111Z,99856.41
2023-01-22T13:50:06.942Z,99854.69
2023-01-22T13:52:34.404Z,99865.16
2023-01-22T13:55:03.412Z,99869.56
2023-01-22T13:57:30.762Z,99879.87
2023-01-22T14:00:00.161Z,99890.16
2023-01-22T14:02:33.150Z,99888.56
2023-01-22T14:05:01.090Z,99895.66
2023-01-22T14:07:34.389Z,99882.56
2023-01-22T14:10:15.816Z,99881.63
2023-01-22T14:12:43.043Z,99886.03
2023-01-22T14:15:21.441Z,99901.59
2023-01-22T14:17:50.414Z,99905.97
2023-01-22T14:20:18.565Z,99908.59
2023-01-22T14:22:45.863Z,99906.12
2023-01-22T14:25:12.973Z,99915.81
2023-01-22T14:27:42.154Z,99908.09
2023-01-22T14:30:14.481Z,99909.59
2023-01-22T14:32:43.404Z,99913.84
2023-01-22T14:35:19.085Z,99911.41
2023-01-22T14:37:47.152Z,99916.59
2023-01-22T14:40:16.402Z,99911.38
2023-01-22T14:42:43.808Z,99917.63
2023-01-22T14:45:11.803Z,99916.94
2023-01-22T14:47:39.461Z,99932.47
2023-01-22T14:50:07.618Z,99932.44
2023-01-22T14:52:37.623Z,99935.22
2023-01-22T14:55:05.764Z,99935.94
2023-01-22T14:57:32.865Z,99942.13
2023-01-22T15:00:02.692Z,99936.94
2023-01-22T15:02:30.185Z,99951.91
2023-01-22T15:04:57.732Z,99954.59
2023-01-22T15:07:25.190Z,99954.44
2023-01-22T15:09:52.326Z,99960.63
2023-01-22T15:12:19.480Z,99964.63
2023-01-22T15:14:47.413Z,99972.66
2023-01-22T15:17:15.000Z,99969.19
2023-01-22T15:19:42.129Z,99969.22
2023-01-22T15:22:10.260Z,99965.69
2023-01-22T15:24:39.452Z,99964.84
2023-01-22T15:27:07.441Z,99969.09
2023-01-22T15:29:34.930Z,99978.63
2023-01-22T15:32:02.668Z,99975.31
2023-01-22T15:34:29.820Z,99975.53
2023-01-22T15:36:57.405Z,99984.47
2023-01-22T15:39:24.497Z,99988.59
2023-01-22T15:41:51.676Z,99983.25
2023-01-22T15:44:19.045Z,99992.69
2023-01-22T15:46:47.298Z,99987.34
2023-01-22T15:49:14.459Z,99993.84
2023-01-22T15:51:42.184Z,99998.34
2023-01-22T15:54:14.836Z,100002.81
2023-01-22T15:56:43.002Z,100002.63
2023-01-22T15:59:11.139Z,99998.34
2023-01-22T16:01:38.583Z,100007.22
2023-01-22T16:04:06.492Z,99998.47
2023-01-22T16:06:37.689Z,99994.88
2023-01-22T16:09:07.373Z,99999.25
2023-01-22T16:11:35.721Z,99994.16
2023-01-22T16:14:03.399Z,99994.72
2023-01-22T16:16:33.933Z,99998.91
2023-01-22T16:19:02.720Z,100004.31
2023-01-22T16:21:29.979Z,99998.41
2023-01-22T16:24:00.728Z,99998.47
2023-01-22T16:26:31.446Z,100005.41
2023-01-22T16:29:00.393Z,100009.81
2023-01-22T16:31:30.230Z,100017.56
2023-01-22T16:34:09.056Z,100021.91
2023-01-22T16:36:37.275Z,100026.28
2023-01-22T16:39:05.207Z,100032.25
2023-01-22T16:41:34.532Z,100039.25
2023-01-22T16:44:10.130Z,100041.81
2023-01-22T16:46:39.597Z,100043.56
2023-01-22T16:49:14.444Z,100042.44
2023-01-22T16:51:45.425Z,100042.28
2023-01-22T16:54:30.375Z,100042.53
2023-01-22T16:56:58.278Z,100038.03
2023-01-22T16:59:27.189Z,100044.22
2023-01-22T17:01:55.027Z,100051.38
2023-01-22T17:04:22.441Z,100051.31
2023-01-22T17:06:55.191Z,100052.12
2023-01-22T17:09:27.134Z,100052.94
2023-01-22T17:11:57.350Z,100058.88
2023-01-22T17:14:28.412Z,100055.41
2023-01-22T17:16:57.063Z,100065.97
2023-01-22T17:19:25.037Z,100063.31
2023-01-22T17:21:57.854Z,100064.09
2023-01-22T17:24:26.624Z,100065.88
2023-01-22T17:26:54.503Z,100055.66
2023-01-22T17:29:22.101Z,100062.69
2023-01-22T17:31:49.711Z,100072.13
2023-01-22T17:34:18.351Z,100064.34
2023-01-22T17:36:45.511Z,100075.78
2023-01-22T17:39:17.144Z,100081.97
2023-01-22T17:41:44.846Z,100085.28
2023-01-22T17:44:12.449Z,100097.63
2023-01-22T17:46:40.203Z,100088.88
2023-01-22T17:49:07.381Z,100095.66
2023-01-22T17:51:35.141Z,100102.75
2023-01-22T17:54:03.742Z,100102.75
2023-01-22T17:56:36.677Z,100111.47
2023-01-22T17:59:06.920Z,100105.41
2023-01-22T18:01:36.730Z,100108.84
2023-01-22T18:04:07.299Z,100103.72
2023-01-22T18:06:35.923Z,100099.88
2023-01-22T18:09:05.568Z,100106.78
2023-01-22T18:11:33.050Z,100102.53
2023-01-22T18:14:03.299Z,100096.50
2023-01-22T18:16:34.349Z,100101.69
2023-01-22T18:19:05.267Z,100097.44
2023-01-22T18:21:33.716Z,100098.31
2023-01-22T18:24:02.351Z,100099.06
2023-01-22T18:26:29.637Z,100106.19
2023-01-22T18:28:58.523Z,100107.81
2023-01-22T18:31:27.977Z,100097.41
2023-01-22T18:33:58.187Z,100097.84
2023-01-22T18:36:28.488Z,100102.34
2023-01-22T18:39:10.794Z,100116.47
2023-01-22T18:41:40.038Z,100108.84
2023-01-22T18:44:07.979Z,100102.69
2023-01-22T18:46:40.216Z,100095.47
2023-01-22T18:49:17.022Z,100107.66
2023-01-22T18:51:45.659Z,100116.41
2023-01-22T18:54:13.067Z,100116.47
2023-01-22T18:56:40.395Z,100121.00
2023-01-22T18:59:07.859Z,100110.97
2023-01-22T19:01:38.303Z,100103.88
2023-01-22T19:04:08.223Z,100097.91
2023-01-22T19:06:38.122Z,100095.34
2023-01-22T19:09:09.538Z,100085.66
2023-01-22T19:11:38.890Z,100056.31
2023-01-22T19:14:09.048Z,100053.84
2023-01-22T19:16:38.290Z,100058.28
2023-01-22T19:19:11.326Z,100075.03
2023-01-22T19:21:46.877Z,100092.63
2023-01-22T19:24:16.752Z,100112.88
2023-01-22T19:26:46.719Z,100129.63
2023-01-22T19:29:17.413Z,100131.31
2023-01-22T19:31:47.145Z,100140.12
2023-01-22T19:34:23.181Z,100146.25
2023-01-22T19:36:56.562Z,100142.84
2023-01-22T19:39:27.596Z,100136.78
2023-01-22T19:41:54.881Z,100142.16
2023-01-22T19:44:22.242Z,100142.13
2023-01-22T19:46:49.781Z,100147.47
2023-01-22T19:49:17.047Z,100159.75
2023-01-22T19:51:44.312Z,100156.28
2023-01-22T19:54:12.070Z,100156.09
2023-01-22T19:56:41.708Z,100154.97
2023-01-22T19:59:14.547Z,100149.59
2023-01-22T20:01:43.058Z,100145.31
2023-01-22T20:04:18.131Z,100165.66
2023-01-22T20:06:45.902Z,100163.06
2023-01-22T20:09:13.333Z,100162.44
2023-01-22T20:11:40.731Z,100155.50
2023-01-22T20:14:07.778Z,100151.78
2023-01-22T20:16:35.223Z,100152.81
2023-01-22T20:19:02.716Z,100148.47
2023-01-22T20:21:30.894Z,100152.06
2023-01-22T20:23:58.284Z,100158.22
2023-01-22T20:26:25.303Z,100157.47
2023-01-22T20:28:52.328Z,100161.78
2023-01-22T20:31:23.542Z,100167.94
2023-01-22T20:33:53.736Z,100155.06
2023-01-22T20:36:21.825Z,100159.50
2023-01-22T20:38:52.565Z,100164.81
2023-01-22T20:41:20.990Z,100161.38
2023-01-22T20:43:48.643Z,100160.59
2023-01-22T20:46:15.622Z,100155.41
2023-01-22T20:48:43.645Z,100157.12
2023-01-22T20:51:24.524Z,100156.31
2023-01-22T20:53:53.226Z,100159.00
2023-01-22T20:56:28.363Z,100159.66
2023-01-22T20:58:57.791Z,100164.00
2023-01-22T21:01:25.962Z,100168.28
2023-01-22T21:03:55.135Z,100166.66
2023-01-22T21:06:22.417Z,100168.31
2023-01-22T21:08:51.870Z,100166.56
2023-01-22T21:11:20.747Z,100162.09
2023-01-22T21:13:49.415Z,100173.50
2023-01-22T21:16:26.154Z,100169.06
2023-01-22T21:18:55.729Z,100172.56
2023-01-22T21:21:23.654Z,100168.12
2023-01-22T21:23:53.100Z,100168.94
2023-01-22T21:26:22.991Z,100169.09
2023-01-22T21:28:54.407Z,100165.63
2023-01-22T21:31:22.985Z,100166.44
2023-01-22T21:33:52.636Z,100170.03
2023-01-22T21:36:19.924Z,100167.41
2023-01-22T21:38:47.949Z,100164.00
2023-01-22T21:41:18.268Z,100164.91
2023-01-22T21:44:06.098Z,100167.50
2023-01-22T21:46:38.131Z,100165.75
2023-01-22T21:49:16.456Z,100171.09
2023-01-22T21:51:49.252Z,100170.25
2023-01-22T21:54:19.710Z,100160.62
2023-01-22T21:56:47.190Z,100172.87
2023-01-22T21:59:14.508Z,100172.09
2023-01-22T22:01:41.785Z,100172.91
2023-01-22T22:04:09.752Z,100178.97
2023-01-22T22:06:37.635Z,100175.47
2023-01-22T22:09:11.339Z,100165.03
2023-01-22T22:11:38.804Z,100174.53
2023-01-22T22:14:07.571Z,100165.91
2023-01-22T22:16:37.110Z,100169.41
2023-01-22T22:19:04.770Z,100163.31
2023-01-22T22:21:31.891Z,100163.34
2023-01-22T22:23:59.239Z,100166.81
2023-01-22T22:26:26.766Z,100158.13
2023-01-22T22:28:54.343Z,100163.28
2023-01-22T22:31:22.857Z,100171.03
2023-01-22T22:33:52.380Z,100154.66
2023-01-22T22:36:23.009Z,100157.28
2023-01-22T22:38:50.572Z,100147.66
2023-01-22T22:41:23.385Z,100142.53
2023-01-22T22:43:52.996Z,100150.41
2023-01-22T22:46:22.940Z,100142.53
2023-01-22T22:48:51.485Z,100130.41
2023-01-22T22:51:22.281Z,100121.75
2023-01-22T22:53:53.381Z,100120.00
2023-01-22T22:56:21.614Z,100126.16
2023-01-22T22:58:49.169Z,100127.97
2023-01-22T23:01:19.463Z,100129.69
2023-01-22T23:03:47.327Z,100127.94
2023-01-22T23:06:17.706Z,100134.03
2023-01-22T23:08:52.123Z,100129.75
2023-01-22T23:11:26.286Z,100136.78
2023-01-22T23:13:53.924Z,100140.31
2023-01-22T23:16:22.756Z,100149.97
2023-01-22T23:18:51.627Z,100143.81
2023-01-22T23:21:24.572Z,100151.59
2023-01-22T23:23:53.153Z,100153.38
2023-01-22T23:26:28.257Z,100161.22
2023-01-22T23:29:00.714Z,100166.50
2023-01-22T23:31:30.246Z,100155.09
2023-01-22T23:33:57.973Z,100149.06
2023-01-22T23:36:28.809Z,100152.53
2023-01-22T23:38:56.709Z,100156.75
2023-01-22T23:41:24.686Z,100157.69
2023-01-22T23:43:51.837Z,100158.53
2023-01-22T23:46:25.641Z,100157.62
2023-01-22T23:48:54.640Z,100150.66
2023-01-22T23:51:21.938Z,100146.31
2023-01-22T23:53:54.058Z,100156.69
2023-01-22T23:56:24.042Z,100160.22
2023-01-22T23:58:55.221Z,100151.53
